Time,TemperatureF,DewpointF,PressureIn,WindDirection,WindDirectionDegrees,WindSpeedMPH,WindSpeedGustMPH,Humidity,HourlyPrecipIn,Conditions,Clouds,dailyrainin,SolarRadiationWatts/m^2,SoftwareType,DateUTC
2013-08-10 00:01:00,66.9,63.2,30.15,NNE,15,2.0,14.0,88,0.00,,,0.00,0,Wunderground v.1.15,2013-08-10 05:01:00,
2013-08-10 00:07:00,66.9,63.2,30.16,NNE,15,3.0,14.0,88,0.00,,,0.00,0,Wunderground v.1.15,2013-08-10 05:07:00,
2013-08-10 00:13:00,66.8,63.1,30.16,NNE,15,3.0,3.0,88,0.00,,,0.00,0,Wunderground v.1.15,2013-08-10 05:13:00,
2013-08-10 00:19:00,66.6,62.9,30.16,NNE,15,2.0,14.0,88,0.00,,,0.00,0,Wunderground v.1.15,2013-08-10 05:19:00,
2013-08-10 00:25:00,66.5,62.8,30.16,NNE,15,2.0,14.0,88,0.00,,,0.00,0,Wunderground v.1.15,2013-08-10 05:25:00,
2013-08-10 00:31:00,66.3,62.6,30.16,NNE,15,3.0,14.0,88,0.00,,,0.00,0,Wunderground v.1.15,2013-08-10 05:31:00,
2013-08-10 00:37:00,66.0,62.3,30.16,NNE,15,4.0,14.0,88,0.00,,,0.00,0,Wunderground v.1.15,2013-08-10 05:37:00,
2013-08-10 00:43:00,65.9,62.2,30.16,NNE,15,3.0,14.0,88,0.00,,,0.00,0,Wunderground v.1.15,2013-08-10 05:43:00,
2013-08-10 00:49:00,65.9,62.2,30.16,NNE,15,3.0,14.0,88,0.00,,,0.00,0,Wunderground v.1.15,2013-08-10 05:49:00,
2013-08-10 00:55:00,65.9,62.6,30.16,NNE,15,3.0,14.0,89,0.00,,,0.00,0,Wunderground v.1.15,2013-08-10 05:55:00,
2013-08-10 01:01:00,65.8,62.1,30.16,NNE,15,2.0,14.0,88,0.00,,,0.00,0,Wunderground v.1.15,2013-08-10 06:01:00,
2013-08-10 01:07:00,65.7,62.0,30.16,NNE,15,2.0,3.0,88,0.00,,,0.00,0,Wunderground v.1.15,2013-08-10 06:07:00,
2013-08-10 01:13:00,65.6,61.9,30.16,NNE,15,3.0,3.0,88,0.00,,,0.00,0,Wunderground v.1.15,2013-08-10 06:13:00,
2013-08-10 01:19:00,65.5,61.9,30.16,NNE,15,2.0,3.0,88,0.00,,,0.00,0,Wunderground v.1.15,2013-08-10 06:19:00,
2013-08-10 01:25:00,65.5,62.2,30.16,NNE,15,2.0,3.0,89,0.00,,,0.00,0,Wunderground v.1.15,2013-08-10 06:25:00,
2013-08-10 01:31:00,65.4,62.1,30.16,NNE,15,2.0,3.0,89,0.00,,,0.00,0,Wunderground v.1.15,2013-08-10 06:31:00,
2013-08-10 01:37:00,65.4,61.8,30.16,NNE,15,1.0,2.0,88,0.00,,,0.00,0,Wunderground v.1.15,2013-08-10 06:37:00,
2013-08-10 01:43:00,65.2,61.6,30.16,NNE,15,0.0,5.0,88,0.00,,,0.00,0,Wunderground v.1.15,2013-08-10 06:43:00,
2013-08-10 01:49:00,65.3,62.0,30.16,NNE,15,0.0,5.0,89,0.00,,,0.00,0,Wunderground v.1.15,2013-08-10 06:49:00,
2013-08-10 01:55:00,65.2,61.9,30.16,NNE,15,0.0,5.0,89,0.00,,,0.00,0,Wunderground v.1.15,2013-08-10 06:55:00,
2013-08-10 02:01:00,65.2,61.9,30.16,NNE,15,0.0,5.0,89,0.00,,,0.00,0,Wunderground v.1.15,2013-08-10 07:01:00,
2013-08-10 02:07:00,65.1,61.8,30.16,NNE,15,0.0,5.0,89,0.00,,,0.00,0,Wunderground v.1.15,2013-08-10 07:07:00,
2013-08-10 02:13:00,65.1,61.8,30.16,NNE,15,0.0,5.0,89,0.00,,,0.00,0,Wunderground v.1.15,2013-08-10 07:13:00,
2013-08-10 02:21:00,65.2,61.9,30.16,NNE,15,1.0,5.0,89,0.00,,,0.00,0,Wunderground v.1.15,2013-08-10 07:21:00,
2013-08-10 02:27:00,65.2,61.9,30.16,NNE,15,1.0,5.0,89,0.00,,,0.00,0,Wunderground v.1.15,2013-08-10 07:27:00,
2013-08-10 02:33:00,65.3,61.7,30.16,NNE,15,1.0,5.0,88,0.00,,,0.00,0,Wunderground v.1.15,2013-08-10 07:33:00,
2013-08-10 02:39:00,65.1,61.5,30.16,NNE,15,1.0,5.0,88,0.00,,,0.00,0,Wunderground v.1.15,2013-08-10 07:39:00,
2013-08-10 02:45:00,65.1,61.5,30.16,NNE,15,1.0,5.0,88,0.00,,,0.00,0,Wunderground v.1.15,2013-08-10 07:45:00,
2013-08-10 02:51:00,65.0,61.4,30.16,NNE,15,1.0,5.0,88,0.00,,,0.00,0,Wunderground v.1.15,2013-08-10 07:51:00,
2013-08-10 02:57:00,65.0,61.4,30.16,NNE,15,2.0,5.0,88,0.00,,,0.00,0,Wunderground v.1.15,2013-08-10 07:57:00,
2013-08-10 03:03:00,65.0,61.4,30.16,NNE,15,2.0,5.0,88,0.00,,,0.00,0,Wunderground v.1.15,2013-08-10 08:03:00,
2013-08-10 03:09:00,64.9,61.3,30.16,NNE,15,2.0,5.0,88,0.00,,,0.00,0,Wunderground v.1.15,2013-08-10 08:09:00,
2013-08-10 03:15:00,64.9,61.3,30.16,NNE,15,2.0,5.0,88,0.00,,,0.00,0,Wunderground v.1.15,2013-08-10 08:15:00,
2013-08-10 03:23:00,64.9,61.3,30.16,NNE,15,2.0,2.0,88,0.00,,,0.00,0,Wunderground v.1.15,2013-08-10 08:23:00,
2013-08-10 03:29:00,64.9,61.3,30.16,NNE,15,2.0,5.0,88,0.00,,,0.00,0,Wunderground v.1.15,2013-08-10 08:29:00,
2013-08-10 03:35:00,64.9,61.3,30.16,NNE,15,1.0,5.0,88,0.00,,,0.00,0,Wunderground v.1.15,2013-08-10 08:35:00,
2013-08-10 03:41:00,65.0,61.4,30.16,NNE,15,1.0,5.0,88,0.00,,,0.00,0,Wunderground v.1.15,2013-08-10 08:41:00,
2013-08-10 03:47:00,65.0,61.4,30.16,NNE,15,0.0,5.0,88,0.00,,,0.00,0,Wunderground v.1.15,2013-08-10 08:47:00,
2013-08-10 03:53:00,64.8,61.2,30.17,NNE,15,0.0,5.0,88,0.00,,,0.00,0,Wunderground v.1.15,2013-08-10 08:53:00,
2013-08-10 03:59:00,64.9,61.3,30.17,NNE,15,0.0,5.0,88,0.00,,,0.00,0,Wunderground v.1.15,2013-08-10 08:59:00,
2013-08-10 04:05:00,64.7,61.1,30.16,NNE,15,1.0,5.0,88,0.00,,,0.00,0,Wunderground v.1.15,2013-08-10 09:05:00,
2013-08-10 04:11:00,64.6,61.0,30.16,NNE,15,1.0,5.0,88,0.00,,,0.00,0,Wunderground v.1.15,2013-08-10 09:11:00,
2013-08-10 04:17:00,64.5,60.9,30.16,NNE,15,3.0,5.0,88,0.00,,,0.00,0,Wunderground v.1.15,2013-08-10 09:17:00,
2013-08-10 04:23:00,64.5,60.9,30.15,NNE,13,3.0,5.0,88,0.00,,,0.00,0,Wunderground v.1.15,2013-08-10 09:23:00,
2013-08-10 04:29:00,64.5,60.9,30.15,North,11,4.0,5.0,88,0.00,,,0.00,0,Wunderground v.1.15,2013-08-10 09:29:00,
2013-08-10 04:35:00,64.3,60.7,30.15,North,10,3.0,5.0,88,0.00,,,0.00,0,Wunderground v.1.15,2013-08-10 09:35:00,
2013-08-10 04:41:00,64.2,60.6,30.15,North,10,3.0,5.0,88,0.00,,,0.00,0,Wunderground v.1.15,2013-08-10 09:41:00,
2013-08-10 04:47:00,64.1,60.8,30.15,North,10,3.0,5.0,89,0.00,,,0.00,0,Wunderground v.1.15,2013-08-10 09:47:00,
2013-08-10 04:53:00,64.0,60.7,30.15,North,10,2.0,5.0,89,0.00,,,0.00,0,Wunderground v.1.15,2013-08-10 09:53:00,
2013-08-10 04:59:00,63.9,60.6,30.15,North,10,2.0,5.0,89,0.00,,,0.00,0,Wunderground v.1.15,2013-08-10 09:59:00,
2013-08-10 05:05:00,63.8,60.5,30.15,North,10,3.0,5.0,89,0.00,,,0.00,0,Wunderground v.1.15,2013-08-10 10:05:00,
2013-08-10 05:11:00,63.7,60.4,30.15,North,10,3.0,5.0,89,0.00,,,0.00,0,Wunderground v.1.15,2013-08-10 10:11:00,
2013-08-10 05:17:00,63.8,60.5,30.15,North,10,2.0,5.0,89,0.00,,,0.00,0,Wunderground v.1.15,2013-08-10 10:17:00,
2013-08-10 05:23:00,63.8,60.5,30.15,North,10,2.0,2.0,89,0.00,,,0.00,0,Wunderground v.1.15,2013-08-10 10:23:00,
2013-08-10 05:29:00,63.8,60.5,30.15,North,10,2.0,5.0,89,0.00,,,0.00,0,Wunderground v.1.15,2013-08-10 10:29:00,
2013-08-10 05:35:00,63.8,60.5,30.15,North,10,2.0,5.0,89,0.00,,,0.00,0,Wunderground v.1.15,2013-08-10 10:35:00,
2013-08-10 05:41:00,63.8,60.5,30.15,North,10,3.0,5.0,89,0.00,,,0.00,0,Wunderground v.1.15,2013-08-10 10:41:00,
2013-08-10 05:47:00,63.9,60.6,30.15,North,10,3.0,5.0,89,0.00,,,0.00,0,Wunderground v.1.15,2013-08-10 10:47:00,
2013-08-10 05:53:00,63.9,60.6,30.15,North,10,3.0,5.0,89,0.00,,,0.00,0,Wunderground v.1.15,2013-08-10 10:53:00,
2013-08-10 05:59:00,63.8,60.5,30.15,North,10,3.0,5.0,89,0.00,,,0.00,0,Wunderground v.1.15,2013-08-10 10:59:00,
2013-08-10 06:05:00,63.9,60.6,30.15,North,10,3.0,5.0,89,0.00,,,0.00,0,Wunderground v.1.15,2013-08-10 11:05:00,
2013-08-10 06:11:00,63.9,60.6,30.15,North,10,2.0,5.0,89,0.00,,,0.00,0,Wunderground v.1.15,2013-08-10 11:11:00,
2013-08-10 06:17:00,64.0,61.0,30.15,North,10,2.0,5.0,90,0.00,,,0.00,0,Wunderground v.1.15,2013-08-10 11:17:00,
2013-08-10 06:23:00,63.9,60.9,30.16,North,10,2.0,5.0,90,0.00,,,0.00,0,Wunderground v.1.15,2013-08-10 11:23:00,
2013-08-10 06:29:00,64.0,61.0,30.16,North,10,1.0,5.0,90,0.00,,,0.00,0,Wunderground v.1.15,2013-08-10 11:29:00,
2013-08-10 06:35:00,63.9,60.9,30.16,North,10,0.0,5.0,90,0.00,,,0.00,0,Wunderground v.1.15,2013-08-10 11:35:00,
2013-08-10 06:41:00,64.0,61.0,30.16,North,10,0.0,5.0,90,0.00,,,0.00,0,Wunderground v.1.15,2013-08-10 11:41:00,
2013-08-10 06:47:00,64.0,61.0,30.16,North,10,0.0,5.0,90,0.00,,,0.00,5,Wunderground v.1.15,2013-08-10 11:47:00,
2013-08-10 06:53:00,64.1,61.1,30.16,North,10,0.0,5.0,90,0.00,,,0.00,9,Wunderground v.1.15,2013-08-10 11:53:00,
2013-08-10 06:59:00,64.0,61.0,30.17,North,10,1.0,5.0,90,0.00,,,0.00,12,Wunderground v.1.15,2013-08-10 11:59:00,
2013-08-10 07:01:00,64.0,61.0,30.17,North,10,2.0,5.0,90,0.00,,,0.00,12,Wunderground v.1.15,2013-08-10 12:01:00,
2013-08-10 07:07:00,64.0,61.0,30.17,North,10,1.0,5.0,90,0.00,,,0.00,16,Wunderground v.1.15,2013-08-10 12:07:00,
2013-08-10 07:13:00,64.2,61.2,30.17,North,10,1.0,5.0,90,0.00,,,0.00,19,Wunderground v.1.15,2013-08-10 12:13:00,
2013-08-10 07:19:00,64.4,61.4,30.17,North,10,1.0,5.0,90,0.00,,,0.00,28,Wunderground v.1.15,2013-08-10 12:19:00,
2013-08-10 07:25:00,64.7,61.7,30.17,North,10,2.0,5.0,90,0.00,,,0.00,49,Wunderground v.1.15,2013-08-10 12:25:00,
2013-08-10 07:31:00,65.1,62.1,30.17,North,10,2.0,5.0,90,0.00,,,0.00,63,Wunderground v.1.15,2013-08-10 12:31:00,
2013-08-10 07:37:00,65.6,62.9,30.18,North,10,1.0,5.0,91,0.00,,,0.00,77,Wunderground v.1.15,2013-08-10 12:37:00,
2013-08-10 07:43:00,66.1,63.1,30.17,North,10,1.0,1.0,90,0.00,,,0.00,91,Wunderground v.1.15,2013-08-10 12:43:00,
2013-08-10 07:49:00,66.6,63.6,30.18,North,10,1.0,5.0,90,0.00,,,0.00,109,Wunderground v.1.15,2013-08-10 12:49:00,
2013-08-10 07:55:00,67.0,64.0,30.19,North,10,1.0,5.0,90,0.00,,,0.00,127,Wunderground v.1.15,2013-08-10 12:55:00,
2013-08-10 08:01:00,67.4,64.4,30.19,North,10,1.0,5.0,90,0.00,,,0.00,142,Wunderground v.1.15,2013-08-10 13:01:00,
2013-08-10 08:07:00,68.0,64.6,30.19,North,10,1.0,5.0,89,0.00,,,0.00,160,Wunderground v.1.15,2013-08-10 13:07:00,
2013-08-10 08:15:00,68.9,65.5,30.19,North,10,1.0,5.0,89,0.00,,,0.00,179,Wunderground v.1.15,2013-08-10 13:15:00,
2013-08-10 08:21:00,69.6,65.6,30.19,North,10,2.0,5.0,87,0.00,,,0.00,193,Wunderground v.1.15,2013-08-10 13:21:00,
2013-08-10 08:27:00,69.7,65.7,30.19,North,10,2.0,4.0,87,0.00,,,0.00,211,Wunderground v.1.15,2013-08-10 13:27:00,
2013-08-10 08:33:00,70.0,65.3,30.18,North,10,3.0,3.0,85,0.00,,,0.00,227,Wunderground v.1.15,2013-08-10 13:33:00,
2013-08-10 08:39:00,70.4,65.7,30.19,North,10,3.0,5.0,85,0.00,,,0.00,241,Wunderground v.1.15,2013-08-10 13:39:00,
2013-08-10 08:45:00,70.8,65.4,30.19,North,10,3.0,4.0,83,0.00,,,0.00,260,Wunderground v.1.15,2013-08-10 13:45:00,
2013-08-10 08:51:00,71.1,65.7,30.19,North,11,2.0,5.0,83,0.00,,,0.00,274,Wunderground v.1.15,2013-08-10 13:51:00,
2013-08-10 08:57:00,71.3,65.5,30.20,NNE,21,2.0,5.0,82,0.00,,,0.00,292,Wunderground v.1.15,2013-08-10 13:57:00,
2013-08-10 09:03:00,72.1,65.6,30.20,NNE,21,3.0,5.0,80,0.00,,,0.00,316,Wunderground v.1.15,2013-08-10 14:03:00,
2013-08-10 09:09:00,72.6,65.7,30.20,NNE,21,3.0,6.0,79,0.00,,,0.00,346,Wunderground v.1.15,2013-08-10 14:09:00,
2013-08-10 09:15:00,72.8,65.2,30.20,NNE,16,3.0,5.0,77,0.00,,,0.00,380,Wunderground v.1.15,2013-08-10 14:15:00,
2013-08-10 09:21:00,73.1,65.1,30.20,NE,37,2.0,5.0,76,0.00,,,0.00,401,Wunderground v.1.15,2013-08-10 14:21:00,
2013-08-10 09:27:00,73.3,65.3,30.20,NE,46,3.0,5.0,76,0.00,,,0.00,417,Wunderground v.1.15,2013-08-10 14:27:00,
2013-08-10 09:33:00,73.6,65.2,30.20,NE,45,4.0,6.0,75,0.00,,,0.00,434,Wunderground v.1.15,2013-08-10 14:33:00,
2013-08-10 09:39:00,73.8,65.4,30.20,NE,54,3.0,6.0,75,0.00,,,0.00,454,Wunderground v.1.15,2013-08-10 14:39:00,
2013-08-10 09:45:00,74.4,66.0,30.20,NE,40,4.0,7.0,75,0.00,,,0.00,471,Wunderground v.1.15,2013-08-10 14:45:00,
2013-08-10 09:51:00,74.5,65.3,30.20,NE,54,5.0,9.0,73,0.00,,,0.00,489,Wunderground v.1.15,2013-08-10 14:51:00,
2013-08-10 09:57:00,75.1,66.6,30.20,NE,46,4.0,5.0,75,0.00,,,0.00,506,Wunderground v.1.15,2013-08-10 14:57:00,
2013-08-10 10:03:00,75.6,65.9,30.20,NE,52,3.0,6.0,72,0.00,,,0.00,522,Wunderground v.1.15,2013-08-10 15:03:00,
2013-08-10 10:09:00,75.5,66.2,30.20,NE,48,3.0,6.0,73,0.00,,,0.00,540,Wunderground v.1.15,2013-08-10 15:09:00,
2013-08-10 10:15:00,75.6,65.5,30.20,ENE,62,2.0,5.0,71,0.00,,,0.00,550,Wunderground v.1.15,2013-08-10 15:15:00,
2013-08-10 10:21:00,76.0,66.7,30.20,NE,56,3.0,5.0,73,0.00,,,0.00,563,Wunderground v.1.15,2013-08-10 15:21:00,
2013-08-10 10:27:00,76.5,66.8,30.20,ENE,59,4.0,7.0,72,0.00,,,0.00,591,Wunderground v.1.15,2013-08-10 15:27:00,
2013-08-10 10:33:00,76.7,66.2,30.20,ENE,60,4.0,7.0,70,0.00,,,0.00,605,Wunderground v.1.15,2013-08-10 15:33:00,
2013-08-10 10:39:00,76.8,65.9,30.20,ENE,60,5.0,8.0,69,0.00,,,0.00,608,Wunderground v.1.15,2013-08-10 15:39:00,
2013-08-10 10:41:00,76.9,66.4,30.20,East,79,5.0,8.0,70,0.00,,,0.00,629,Wunderground v.1.15,2013-08-10 15:41:00,
2013-08-10 10:47:00,77.1,66.1,30.20,NE,50,5.0,7.0,69,0.00,,,0.00,628,Wunderground v.1.15,2013-08-10 15:47:00,
2013-08-10 10:53:00,77.7,66.7,30.20,ENE,61,5.0,5.0,69,0.00,,,0.00,650,Wunderground v.1.15,2013-08-10 15:53:00,
2013-08-10 10:59:00,77.9,66.9,30.20,NE,48,4.0,7.0,69,0.00,,,0.00,668,Wunderground v.1.15,2013-08-10 15:59:00,
2013-08-10 11:05:00,77.9,65.6,30.20,ENE,58,6.0,8.0,66,0.00,,,0.00,675,Wunderground v.1.15,2013-08-10 16:05:00,
2013-08-10 11:11:00,78.0,66.6,30.20,NE,46,6.0,8.0,68,0.00,,,0.00,708,Wunderground v.1.15,2013-08-10 16:11:00,
2013-08-10 11:17:00,78.3,66.0,30.20,ENE,64,6.0,10.0,66,0.00,,,0.00,700,Wunderground v.1.15,2013-08-10 16:17:00,
2013-08-10 11:23:00,78.2,66.3,30.20,ENE,64,4.0,4.0,67,0.00,,,0.00,712,Wunderground v.1.15,2013-08-10 16:23:00,
2013-08-10 11:29:00,78.8,66.5,30.20,NE,46,4.0,9.0,66,0.00,,,0.00,761,Wunderground v.1.15,2013-08-10 16:29:00,
2013-08-10 11:35:00,79.2,66.0,30.20,NE,52,5.0,6.0,64,0.00,,,0.00,721,Wunderground v.1.15,2013-08-10 16:35:00,
2013-08-10 11:41:00,78.9,65.2,30.20,ENE,66,6.0,8.0,63,0.00,,,0.00,729,Wunderground v.1.15,2013-08-10 16:41:00,
2013-08-10 11:47:00,79.3,65.6,30.20,East,98,4.0,5.0,63,0.00,,,0.00,777,Wunderground v.1.15,2013-08-10 16:47:00,
2013-08-10 11:53:00,79.5,66.3,30.20,ENE,74,3.0,5.0,64,0.00,,,0.00,756,Wunderground v.1.15,2013-08-10 16:53:00,
2013-08-10 11:59:00,79.5,66.3,30.20,ESE,104,5.0,8.0,64,0.00,,,0.00,814,Wunderground v.1.15,2013-08-10 16:59:00,
2013-08-10 12:05:00,79.5,66.3,30.20,East,86,5.0,8.0,64,0.00,,,0.00,877,Wunderground v.1.15,2013-08-10 17:05:00,
2013-08-10 12:11:00,79.1,66.8,30.20,ENE,68,5.0,8.0,66,0.00,,,0.00,237,Wunderground v.1.15,2013-08-10 17:11:00,
2013-08-10 12:17:00,79.3,66.5,30.20,East,98,5.0,6.0,65,0.00,,,0.00,898,Wunderground v.1.15,2013-08-10 17:17:00,
2013-08-10 12:23:00,79.9,67.1,30.19,ENE,62,4.0,4.0,65,0.00,,,0.00,339,Wunderground v.1.15,2013-08-10 17:23:00,
2013-08-10 12:29:00,80.2,66.5,30.19,ESE,102,4.0,7.0,63,0.00,,,0.00,148,Wunderground v.1.15,2013-08-10 17:29:00,
2013-08-10 12:35:00,79.8,67.0,30.20,ENE,64,4.0,8.0,65,0.00,,,0.00,174,Wunderground v.1.15,2013-08-10 17:35:00,
2013-08-10 12:41:00,80.0,66.3,30.20,ENE,65,3.0,8.0,63,0.00,,,0.00,900,Wunderground v.1.15,2013-08-10 17:41:00,
2013-08-10 12:47:00,80.5,67.2,30.19,ENE,70,2.0,5.0,64,0.00,,,0.00,888,Wunderground v.1.15,2013-08-10 17:47:00,
2013-08-10 12:53:00,80.3,66.6,30.19,East,86,3.0,7.0,63,0.00,,,0.00,265,Wunderground v.1.15,2013-08-10 17:53:00,
2013-08-10 12:59:00,80.9,66.7,30.19,ESE,114,4.0,7.0,62,0.00,,,0.00,1030,Wunderground v.1.15,2013-08-10 17:59:00,
2013-08-10 13:05:00,81.3,65.1,30.18,East,101,5.0,5.0,58,0.00,,,0.00,940,Wunderground v.1.15,2013-08-10 18:05:00,
2013-08-10 13:11:00,81.3,66.6,30.18,East,82,4.0,6.0,61,0.00,,,0.00,986,Wunderground v.1.15,2013-08-10 18:11:00,
2013-08-10 13:17:00,80.3,66.6,30.18,NE,46,4.0,9.0,63,0.00,,,0.00,272,Wunderground v.1.15,2013-08-10 18:17:00,
2013-08-10 13:23:00,80.3,66.1,30.18,East,83,3.0,5.0,62,0.00,,,0.00,970,Wunderground v.1.15,2013-08-10 18:23:00,
2013-08-10 13:29:00,81.0,66.3,30.18,East,83,3.0,6.0,61,0.00,,,0.00,981,Wunderground v.1.15,2013-08-10 18:29:00,
2013-08-10 13:35:00,82.0,68.2,30.18,ENE,71,4.0,6.0,63,0.00,,,0.00,308,Wunderground v.1.15,2013-08-10 18:35:00,
2013-08-10 13:41:00,81.2,65.5,30.18,ENE,57,4.0,6.0,59,0.00,,,0.00,1025,Wunderground v.1.15,2013-08-10 18:41:00,
2013-08-10 13:47:00,81.8,66.6,30.18,ESE,115,4.0,5.0,60,0.00,,,0.00,981,Wunderground v.1.15,2013-08-10 18:47:00,
2013-08-10 13:53:00,82.5,67.2,30.18,ESE,117,3.0,5.0,60,0.00,,,0.00,986,Wunderground v.1.15,2013-08-10 18:53:00,
2013-08-10 13:59:00,82.3,66.0,30.18,ESE,116,3.0,7.0,58,0.00,,,0.00,1002,Wunderground v.1.15,2013-08-10 18:59:00,
2013-08-10 14:05:00,82.6,67.8,30.18,ESE,107,4.0,5.0,61,0.00,,,0.00,956,Wunderground v.1.15,2013-08-10 19:05:00,
2013-08-10 14:11:00,82.9,66.1,30.17,ESE,120,4.0,9.0,57,0.00,,,0.00,942,Wunderground v.1.15,2013-08-10 19:11:00,
2013-08-10 14:17:00,82.7,67.9,30.17,ESE,115,4.0,5.0,61,0.00,,,0.00,909,Wunderground v.1.15,2013-08-10 19:17:00,
2013-08-10 14:23:00,83.0,66.2,30.17,ESE,103,5.0,5.0,57,0.00,,,0.00,969,Wunderground v.1.15,2013-08-10 19:23:00,
2013-08-10 14:29:00,82.7,66.9,30.17,SE,125,5.0,6.0,59,0.00,,,0.00,977,Wunderground v.1.15,2013-08-10 19:29:00,
2013-08-10 14:35:00,83.0,68.6,30.17,ENE,72,4.0,9.0,62,0.00,,,0.00,932,Wunderground v.1.15,2013-08-10 19:35:00,
2013-08-10 14:41:00,83.1,68.3,30.17,East,100,4.0,9.0,61,0.00,,,0.00,974,Wunderground v.1.15,2013-08-10 19:41:00,
2013-08-10 14:47:00,82.3,66.0,30.17,ENE,74,3.0,7.0,58,0.00,,,0.00,269,Wunderground v.1.15,2013-08-10 19:47:00,
2013-08-10 14:53:00,82.3,67.5,30.17,East,91,3.0,3.0,61,0.00,,,0.00,912,Wunderground v.1.15,2013-08-10 19:53:00,
2013-08-10 14:59:00,82.5,67.2,30.16,ENE,62,2.0,8.0,60,0.00,,,0.00,541,Wunderground v.1.15,2013-08-10 19:59:00,
2013-08-10 15:05:00,82.9,67.1,30.16,NE,50,5.0,5.0,59,0.00,,,0.00,918,Wunderground v.1.15,2013-08-10 20:05:00,
2013-08-10 15:11:00,83.3,66.5,30.16,ENE,60,5.0,8.0,57,0.00,,,0.00,935,Wunderground v.1.15,2013-08-10 20:11:00,
2013-08-10 15:17:00,82.3,67.5,30.16,ENE,70,5.0,8.0,61,0.00,,,0.00,886,Wunderground v.1.15,2013-08-10 20:17:00,
2013-08-10 15:23:00,82.0,66.3,30.15,ENE,78,4.0,6.0,59,0.00,,,0.00,833,Wunderground v.1.15,2013-08-10 20:23:00,
2013-08-10 15:29:00,82.8,66.5,30.15,East,84,5.0,6.0,58,0.00,,,0.00,833,Wunderground v.1.15,2013-08-10 20:29:00,
2013-08-10 15:35:00,83.3,65.4,30.15,East,81,4.0,5.0,55,0.00,,,0.00,800,Wunderground v.1.15,2013-08-10 20:35:00,
2013-08-10 15:41:00,83.2,65.4,30.15,East,94,4.0,5.0,55,0.00,,,0.00,350,Wunderground v.1.15,2013-08-10 20:41:00,
2013-08-10 15:47:00,83.2,64.8,30.14,East,92,5.0,8.0,54,0.00,,,0.00,213,Wunderground v.1.15,2013-08-10 20:47:00,
2013-08-10 15:53:00,83.2,64.8,30.14,ESE,102,3.0,3.0,54,0.00,,,0.00,793,Wunderground v.1.15,2013-08-10 20:53:00,
2013-08-10 15:59:00,83.2,65.9,30.14,ESE,123,3.0,6.0,56,0.00,,,0.00,795,Wunderground v.1.15,2013-08-10 20:59:00,
2013-08-10 16:05:00,84.0,66.6,30.14,ESE,118,3.0,5.0,56,0.00,,,0.00,728,Wunderground v.1.15,2013-08-10 21:05:00,
2013-08-10 16:11:00,84.1,66.7,30.14,ESE,114,3.0,5.0,56,0.00,,,0.00,772,Wunderground v.1.15,2013-08-10 21:11:00,
2013-08-10 16:17:00,84.1,65.7,30.13,SE,130,4.0,5.0,54,0.00,,,0.00,721,Wunderground v.1.15,2013-08-10 21:17:00,
2013-08-10 16:23:00,84.7,66.2,30.13,SE,130,4.0,4.0,54,0.00,,,0.00,710,Wunderground v.1.15,2013-08-10 21:23:00,
2013-08-10 16:29:00,84.3,65.8,30.13,ESE,114,3.0,7.0,54,0.00,,,0.00,613,Wunderground v.1.15,2013-08-10 21:29:00,
2013-08-10 16:35:00,83.9,66.0,30.13,ESE,114,3.0,5.0,55,0.00,,,0.00,666,Wunderground v.1.15,2013-08-10 21:35:00,
2013-08-10 16:41:00,84.2,67.3,30.12,ESE,117,3.0,5.0,57,0.00,,,0.00,668,Wunderground v.1.15,2013-08-10 21:41:00,
2013-08-10 16:47:00,84.3,66.4,30.12,East,91,3.0,8.0,55,0.00,,,0.00,174,Wunderground v.1.15,2013-08-10 21:47:00,
2013-08-10 16:53:00,82.7,64.9,30.12,East,93,4.0,4.0,55,0.00,,,0.00,98,Wunderground v.1.15,2013-08-10 21:53:00,
2013-08-10 16:59:00,82.9,66.6,30.12,East,93,2.0,5.0,58,0.00,,,0.00,621,Wunderground v.1.15,2013-08-10 21:59:00,
2013-08-10 17:05:00,84.0,67.1,30.12,ESE,116,2.0,5.0,57,0.00,,,0.00,599,Wunderground v.1.15,2013-08-10 22:05:00,
2013-08-10 17:11:00,84.0,65.6,30.12,East,96,2.0,5.0,54,0.00,,,0.00,519,Wunderground v.1.15,2013-08-10 22:11:00,
2013-08-10 17:17:00,83.3,64.9,30.12,East,96,2.0,5.0,54,0.00,,,0.00,134,Wunderground v.1.15,2013-08-10 22:17:00,
2013-08-10 17:23:00,83.4,65.5,30.12,East,96,1.0,1.0,55,0.00,,,0.00,570,Wunderground v.1.15,2013-08-10 22:23:00,
2013-08-10 17:29:00,84.0,66.6,30.12,ESE,118,1.0,5.0,56,0.00,,,0.00,524,Wunderground v.1.15,2013-08-10 22:29:00,
2013-08-10 17:35:00,84.1,66.2,30.12,ESE,116,2.0,5.0,55,0.00,,,0.00,492,Wunderground v.1.15,2013-08-10 22:35:00,
2013-08-10 17:41:00,83.8,65.4,30.12,ESE,116,2.0,5.0,54,0.00,,,0.00,485,Wunderground v.1.15,2013-08-10 22:41:00,
2013-08-10 17:47:00,83.8,64.8,30.11,ESE,116,1.0,5.0,53,0.00,,,0.00,151,Wunderground v.1.15,2013-08-10 22:47:00,
2013-08-10 17:53:00,83.2,65.4,30.11,ESE,116,1.0,5.0,55,0.00,,,0.00,445,Wunderground v.1.15,2013-08-10 22:53:00,
2013-08-10 17:59:00,83.3,65.4,30.11,ESE,116,1.0,5.0,55,0.00,,,0.00,360,Wunderground v.1.15,2013-08-10 22:59:00,
2013-08-10 18:05:00,83.5,66.7,30.11,ESE,116,1.0,5.0,57,0.00,,,0.00,438,Wunderground v.1.15,2013-08-10 23:05:00,
2013-08-10 18:11:00,83.8,66.4,30.11,ESE,116,1.0,5.0,56,0.00,,,0.00,406,Wunderground v.1.15,2013-08-10 23:11:00,
2013-08-10 18:17:00,83.7,66.8,30.10,ESE,110,2.0,5.0,57,0.00,,,0.00,371,Wunderground v.1.15,2013-08-10 23:17:00,
2013-08-10 18:23:00,83.3,66.5,30.10,ESE,110,2.0,5.0,57,0.00,,,0.00,332,Wunderground v.1.15,2013-08-10 23:23:00,
2013-08-10 18:29:00,83.1,66.3,30.10,ESE,110,2.0,5.0,57,0.00,,,0.00,327,Wunderground v.1.15,2013-08-10 23:29:00,
2013-08-10 18:35:00,83.1,65.8,30.10,ESE,110,1.0,5.0,56,0.00,,,0.00,309,Wunderground v.1.15,2013-08-10 23:35:00,
2013-08-10 18:41:00,83.2,66.4,30.09,ESE,110,1.0,5.0,57,0.00,,,0.00,285,Wunderground v.1.15,2013-08-10 23:41:00,
2013-08-10 18:47:00,83.0,67.2,30.09,ESE,110,2.0,5.0,59,0.00,,,0.00,265,Wunderground v.1.15,2013-08-10 23:47:00,
2013-08-10 18:53:00,82.9,68.1,30.09,ESE,110,1.0,5.0,61,0.00,,,0.00,244,Wunderground v.1.15,2013-08-10 23:53:00,
2013-08-10 18:59:00,82.5,66.2,30.09,ESE,110,1.0,5.0,58,0.00,,,0.00,223,Wunderground v.1.15,2013-08-10 23:59:00,
2013-08-10 19:05:00,82.4,66.1,30.09,ESE,109,2.0,5.0,58,0.00,,,0.00,209,Wunderground v.1.15,2013-08-11 00:05:00,
2013-08-10 19:11:00,82.3,67.0,30.09,ESE,109,2.0,5.0,60,0.00,,,0.00,199,Wunderground v.1.15,2013-08-11 00:11:00,
2013-08-10 19:17:00,82.2,66.4,30.08,ENE,77,2.0,8.0,59,0.00,,,0.00,178,Wunderground v.1.15,2013-08-11 00:17:00,
2013-08-10 19:23:00,82.0,66.3,30.08,East,87,4.0,4.0,59,0.00,,,0.00,146,Wunderground v.1.15,2013-08-11 00:23:00,
2013-08-10 19:29:00,81.4,66.7,30.08,East,87,3.0,5.0,61,0.00,,,0.00,123,Wunderground v.1.15,2013-08-11 00:29:00,
2013-08-10 19:35:00,80.9,66.7,30.08,East,87,2.0,5.0,62,0.00,,,0.00,35,Wunderground v.1.15,2013-08-11 00:35:00,
2013-08-10 19:41:00,80.3,67.0,30.08,East,87,2.0,5.0,64,0.00,,,0.00,19,Wunderground v.1.15,2013-08-11 00:41:00,
2013-08-10 19:47:00,79.5,66.7,30.08,East,87,1.0,5.0,65,0.00,,,0.00,19,Wunderground v.1.15,2013-08-11 00:47:00,
2013-08-10 19:53:00,78.9,66.6,30.09,East,87,1.0,1.0,66,0.00,,,0.00,25,Wunderground v.1.15,2013-08-11 00:53:00,
2013-08-10 19:59:00,78.8,66.9,30.09,East,87,1.0,5.0,67,0.00,,,0.00,25,Wunderground v.1.15,2013-08-11 00:59:00,
2013-08-10 20:05:00,78.6,67.2,30.09,East,87,0.0,5.0,68,0.00,,,0.00,21,Wunderground v.1.15,2013-08-11 01:05:00,
2013-08-10 20:11:00,78.1,67.5,30.09,East,87,0.0,5.0,70,0.00,,,0.00,18,Wunderground v.1.15,2013-08-11 01:11:00,
2013-08-10 20:17:00,77.6,67.0,30.08,East,87,0.0,5.0,70,0.00,,,0.00,12,Wunderground v.1.15,2013-08-11 01:17:00,
2013-08-10 20:23:00,77.5,67.4,30.08,East,87,1.0,5.0,71,0.00,,,0.00,7,Wunderground v.1.15,2013-08-11 01:23:00,
2013-08-10 20:29:00,77.3,67.2,30.08,East,87,1.0,5.0,71,0.00,,,0.00,0,Wunderground v.1.15,2013-08-11 01:29:00,
2013-08-10 20:35:00,77.1,67.0,30.08,East,87,1.0,5.0,71,0.00,,,0.00,0,Wunderground v.1.15,2013-08-11 01:35:00,
2013-08-10 20:41:00,76.9,66.8,30.09,East,87,1.0,5.0,71,0.00,,,0.00,0,Wunderground v.1.15,2013-08-11 01:41:00,
2013-08-10 20:47:00,76.6,66.9,30.09,East,87,1.0,5.0,72,0.00,,,0.00,0,Wunderground v.1.15,2013-08-11 01:47:00,
2013-08-10 20:53:00,76.2,66.5,30.09,East,87,1.0,1.0,72,0.00,,,0.00,0,Wunderground v.1.15,2013-08-11 01:53:00,
2013-08-10 20:59:00,76.0,67.1,30.09,East,87,0.0,5.0,74,0.00,,,0.00,0,Wunderground v.1.15,2013-08-11 01:59:00,
2013-08-10 21:05:00,75.3,67.6,30.09,East,87,0.0,5.0,77,0.00,,,0.00,0,Wunderground v.1.15,2013-08-11 02:05:00,
2013-08-10 21:11:00,74.6,67.3,30.09,East,87,0.0,5.0,78,0.00,,,0.00,0,Wunderground v.1.15,2013-08-11 02:11:00,
2013-08-10 21:17:00,74.2,66.9,30.09,East,87,0.0,5.0,78,0.00,,,0.00,0,Wunderground v.1.15,2013-08-11 02:17:00,
2013-08-10 21:23:00,74.3,67.4,30.10,East,87,0.0,5.0,79,0.00,,,0.00,0,Wunderground v.1.15,2013-08-11 02:23:00,
2013-08-10 21:29:00,74.4,67.1,30.10,East,87,0.0,5.0,78,0.00,,,0.00,0,Wunderground v.1.15,2013-08-11 02:29:00,
2013-08-10 21:35:00,74.8,66.7,30.10,East,87,0.0,5.0,76,0.00,,,0.00,0,Wunderground v.1.15,2013-08-11 02:35:00,
2013-08-10 21:41:00,74.6,66.9,30.10,East,87,0.0,5.0,77,0.00,,,0.00,0,Wunderground v.1.15,2013-08-11 02:41:00,
2013-08-10 21:47:00,74.2,66.9,30.10,East,87,1.0,5.0,78,0.00,,,0.00,0,Wunderground v.1.15,2013-08-11 02:47:00,
2013-08-10 21:53:00,74.2,66.5,30.11,East,87,1.0,5.0,77,0.00,,,0.00,0,Wunderground v.1.15,2013-08-11 02:53:00,
2013-08-10 21:59:00,74.6,66.5,30.11,East,87,2.0,5.0,76,0.00,,,0.00,0,Wunderground v.1.15,2013-08-11 02:59:00,
2013-08-10 22:05:00,74.1,66.4,30.11,East,87,1.0,5.0,77,0.00,,,0.00,0,Wunderground v.1.15,2013-08-11 03:05:00,
2013-08-10 22:11:00,74.0,66.3,30.11,East,87,1.0,5.0,77,0.00,,,0.00,0,Wunderground v.1.15,2013-08-11 03:11:00,
2013-08-10 22:17:00,74.1,66.4,30.12,East,87,1.0,5.0,77,0.00,,,0.00,0,Wunderground v.1.15,2013-08-11 03:17:00,
2013-08-10 22:23:00,74.2,66.5,30.12,East,87,1.0,1.0,77,0.00,,,0.00,0,Wunderground v.1.15,2013-08-11 03:23:00,
2013-08-10 22:29:00,74.1,66.4,30.12,East,87,0.0,5.0,77,0.00,,,0.00,0,Wunderground v.1.15,2013-08-11 03:29:00,
2013-08-10 22:37:00,73.6,66.3,30.12,East,87,0.0,5.0,78,0.00,,,0.00,0,Wunderground v.1.15,2013-08-11 03:37:00,
2013-08-10 22:43:00,73.0,66.5,30.13,East,87,0.0,5.0,80,0.00,,,0.00,0,Wunderground v.1.15,2013-08-11 03:43:00,
2013-08-10 22:49:00,72.6,66.4,30.13,East,87,0.0,5.0,81,0.00,,,0.00,0,Wunderground v.1.15,2013-08-11 03:49:00,
2013-08-10 22:55:00,72.3,66.5,30.13,East,87,0.0,5.0,82,0.00,,,0.00,0,Wunderground v.1.15,2013-08-11 03:55:00,
2013-08-10 23:01:00,72.3,66.5,30.13,East,87,0.0,5.0,82,0.00,,,0.00,0,Wunderground v.1.15,2013-08-11 04:01:00,
2013-08-10 23:03:00,72.5,66.3,30.13,East,87,0.0,5.0,81,0.00,,,0.00,0,Wunderground v.1.15,2013-08-11 04:03:00,
2013-08-10 23:05:00,72.6,66.4,30.13,East,87,0.0,5.0,81,0.00,,,0.00,0,Wunderground v.1.15,2013-08-11 04:05:00,
2013-08-10 23:09:00,73.0,66.5,30.13,East,87,0.0,5.0,80,0.00,,,0.00,0,Wunderground v.1.15,2013-08-11 04:09:00,
2013-08-10 23:15:00,73.2,66.3,30.13,East,87,0.0,5.0,79,0.00,,,0.00,0,Wunderground v.1.15,2013-08-11 04:15:00,
2013-08-10 23:21:00,73.1,66.2,30.14,East,87,1.0,5.0,79,0.00,,,0.00,0,Wunderground v.1.15,2013-08-11 04:21:00,
2013-08-10 23:27:00,73.0,66.1,30.14,East,87,0.0,5.0,79,0.00,,,0.00,0,Wunderground v.1.15,2013-08-11 04:27:00,
2013-08-10 23:33:00,72.8,65.9,30.13,East,87,1.0,5.0,79,0.00,,,0.00,0,Wunderground v.1.15,2013-08-11 04:33:00,
2013-08-10 23:39:00,72.4,65.9,30.14,East,87,1.0,5.0,80,0.00,,,0.00,0,Wunderground v.1.15,2013-08-11 04:39:00,
2013-08-10 23:45:00,72.1,65.9,30.14,East,87,1.0,5.0,81,0.00,,,0.00,0,Wunderground v.1.15,2013-08-11 04:45:00,
2013-08-10 23:51:00,71.8,66.0,30.14,East,87,1.0,5.0,82,0.00,,,0.00,0,Wunderground v.1.15,2013-08-11 04:51:00,
2013-08-10 23:57:00,71.5,65.7,30.14,East,87,0.0,5.0,82,0.00,,,0.00,0,Wunderground v.1.15,2013-08-11 04:57:00,